createdAt,value
2023-01-27T00:04:41.522Z,5.97
2023-01-27T00:09:33.245Z,4.67
2023-01-27T00:14:24.901Z,4.67
2023-01-27T00:19:19.771Z,5.50
2023-01-27T00:24:32.035Z,5.07
2023-01-27T00:29:23.858Z,5.47
2023-01-27T00:34:15.635Z,5.10
2023-01-27T00:39:10.369Z,4.70
2023-01-27T00:44:04.593Z,5.70
2023-01-27T00:48:56.578Z,5.80
2023-01-27T00:53:48.855Z,6.30
2023-01-27T00:58:40.587Z,5.70
2023-01-27T01:03:35.336Z,6.20
2023-01-27T01:08:27.988Z,5.47
2023-01-27T01:13:21.474Z,6.20
2023-01-27T01:18:14.373Z,5.57
2023-01-27T01:23:07.002Z,5.93
2023-01-27T01:27:59.241Z,5.97
2023-01-27T01:32:50.941Z,6.63
2023-01-27T01:37:42.617Z,6.43
2023-01-27T01:42:52.902Z,7.50
2023-01-27T01:47:45.110Z,6.53
2023-01-27T01:52:37.918Z,6.53
2023-01-27T01:57:37.534Z,7.03
2023-01-27T02:02:30.273Z,6.43
2023-01-27T02:07:38.011Z,6.27
2023-01-27T02:12:29.733Z,6.10
2023-01-27T02:17:22.142Z,6.27
2023-01-27T02:22:28.018Z,6.20
2023-01-27T02:27:19.717Z,6.30
2023-01-27T02:32:26.927Z,6.67
2023-01-27T02:37:20.645Z,7.20
2023-01-27T02:42:16.847Z,7.13
2023-01-27T02:47:08.582Z,6.40
2023-01-27T02:52:00.282Z,6.80
2023-01-27T02:56:51.976Z,6.43
2023-01-27T03:01:44.643Z,6.87
2023-01-27T03:06:36.389Z,6.53
2023-01-27T03:11:46.826Z,6.90
2023-01-27T03:16:57.182Z,7.00
2023-01-27T03:21:51.012Z,6.90
2023-01-27T03:26:42.855Z,6.47
2023-01-27T03:31:34.584Z,5.80
2023-01-27T03:36:44.829Z,6.00
2023-01-27T03:41:55.163Z,7.27
2023-01-27T03:46:46.883Z,6.50
2023-01-27T03:51:38.643Z,6.97
2023-01-27T03:56:30.313Z,7.07
2023-01-27T04:01:24.499Z,6.60
2023-01-27T04:06:39.551Z,7.23
2023-01-27T04:11:49.916Z,7.83
2023-01-27T04:16:41.985Z,7.13
2023-01-27T04:21:34.539Z,6.27
2023-01-27T04:26:26.880Z,6.97
2023-01-27T04:31:18.833Z,7.93
2023-01-27T04:36:12.651Z,7.80
2023-01-27T04:41:04.660Z,8.10
2023-01-27T04:45:56.430Z,7.67
2023-01-27T04:50:48.160Z,8.57
2023-01-27T04:55:43.024Z,7.87
2023-01-27T05:36:47.951Z,6.80
2023-01-27T05:41:41.296Z,7.47
2023-01-27T05:46:35.089Z,7.07
2023-01-27T06:01:47.405Z,8.47
2023-01-27T06:06:48.085Z,7.10
2023-01-27T06:42:18.556Z,9.40
2023-01-27T07:53:53.786Z,6.43
2023-01-27T16:12:50.452Z,4.03
2023-01-27T17:12:50.875Z,4.00
2023-01-27T17:28:10.873Z,4.77
2023-01-27T19:33:40.491Z,5.17
